Погода Монагасна неделю

Монагас, Венесуэла

28 февраля-05 марта
  • 28февраля
    Сегодня
    +23°
    +36°
    Ясно и безоблачно
    ВремяПогодаТемператураВлажностьДавлениеВетер, м/сВероятность осадков
    02:00Практически безоблачно+25°C85 %756 мм2.1 м/с2 %
    05:00Ясно и безоблачно+23°C91 %755 мм2.0 м/с2 %
    08:00Ясно и безоблачно+25°C77 %757 мм2.0 м/с2 %
    11:00Ясно и безоблачно+32°C47 %757 мм3.3 м/с2 %
    14:00Ясно и безоблачно+36°C35 %754 мм3.6 м/с4 %
    17:00Практически безоблачно+34°C39 %753 мм4.7 м/с2 %
    20:00Ясно и безоблачно+29°C68 %754 мм4.1 м/с2 %
    23:00Ясно и безоблачно+26°C79 %756 мм4.0 м/с2 %
  • 29февраля
    Четверг
    +23°
    +37°
    Практически безоблачно
    ВремяПогодаТемператураВлажностьДавлениеВетер, м/сВероятность осадков
    02:00Ясно и безоблачно+25°C85 %756 мм2.8 м/с2 %
    05:00Практически безоблачно+24°C90 %756 мм1.8 м/с4 %
    08:00Практически безоблачно+26°C80 %757 мм1.7 м/с8 %
    11:00Ясно и безоблачно+33°C50 %757 мм3.0 м/с43 %
    14:00Практически безоблачно+37°C39 %754 мм3.8 м/с28 %
    17:00Ясно и безоблачно+33°C50 %753 мм5.1 м/с29 %
    20:00Ясно и безоблачно+29°C71 %755 мм4.3 м/с3 %
    23:00Практически безоблачно+26°C80 %756 мм3.8 м/с4 %
  • 01марта
    Пятница
    +23°
    +36°
    Облачно с прояснениями
    ВремяПогодаТемператураВлажностьДавлениеВетер, м/сВероятность осадков
    02:00Практически безоблачно+25°C85 %756 мм3.2 м/с20 %
    05:00Практически безоблачно+24°C90 %756 мм2.7 м/с19 %
    08:00Ясно и безоблачно+26°C78 %757 мм3.2 м/с8 %
    11:00Облачно с прояснениями+32°C51 %757 мм4.7 м/с47 %
    14:00Облачно с прояснениями+36°C37 %755 мм5.0 м/с18 %
    17:00Небольшая облачность+32°C46 %754 мм6.0 м/с10 %
    20:00Небольшая облачность+29°C66 %755 мм4.5 м/с2 %
    23:00Практически безоблачно+26°C77 %757 мм3.5 м/с3 %
  • 02марта
    Суббота
    +23°
    +37°
    Практически безоблачно
    ВремяПогодаТемператураВлажностьДавлениеВетер, м/сВероятность осадков
    02:00Облачно с прояснениями+24°C86 %756 мм2.5 м/с14 %
    05:00Облачно с прояснениями+24°C90 %756 мм2.6 м/с19 %
    08:00Практически безоблачно+26°C77 %757 мм2.8 м/с12 %
    11:00Небольшая облачность и лёгкий дождик+32°C51 %757 мм4.4 м/с67 %
    14:00Практически безоблачно+36°C33 %754 мм4.6 м/с33 %
    17:00Практически безоблачно+33°C43 %754 мм5.4 м/с12 %
    20:00Ясно и безоблачно+29°C66 %755 мм4.7 м/с2 %
    23:00Ясно и безоблачно+26°C78 %756 мм3.8 м/с3 %
Мы используем cookies
Соглашаюсь